sensor_id;sensor_type;location;lat;lon;timestamp;P1;durP1;ratioP1;P2;durP2;ratioP2
7831;SDS011;3961;42.058;25.586;2023-05-20T00:00:07;17.20;;;10.23;;
7831;SDS011;3961;42.058;25.586;2023-05-20T00:02:34;13.13;;;9.40;;
7831;SDS011;3961;42.058;25.586;2023-05-20T00:05:00;13.30;;;9.10;;
7831;SDS011;3961;42.058;25.586;2023-05-20T00:07:25;17.53;;;9.90;;
7831;SDS011;3961;42.058;25.586;2023-05-20T00:09:51;16.13;;;9.80;;
7831;SDS011;3961;42.058;25.586;2023-05-20T00:12:16;13.23;;;10.23;;
7831;SDS011;3961;42.058;25.586;2023-05-20T00:14:42;18.00;;;9.83;;
7831;SDS011;3961;42.058;25.586;2023-05-20T00:17:07;13.80;;;9.97;;
7831;SDS011;3961;42.058;25.586;2023-05-20T00:19:33;14.07;;;10.90;;
7831;SDS011;3961;42.058;25.586;2023-05-20T00:21:59;17.93;;;10.60;;
7831;SDS011;3961;42.058;25.586;2023-05-20T00:24:24;16.97;;;10.63;;
7831;SDS011;3961;42.058;25.586;2023-05-20T00:26:51;20.10;;;10.27;;
7831;SDS011;3961;42.058;25.586;2023-05-20T00:29:16;13.63;;;10.37;;
7831;SDS011;3961;42.058;25.586;2023-05-20T00:31:41;15.80;;;10.50;;
7831;SDS011;3961;42.058;25.586;2023-05-20T00:34:07;18.27;;;10.60;;
7831;SDS011;3961;42.058;25.586;2023-05-20T00:36:33;17.00;;;10.93;;
7831;SDS011;3961;42.058;25.586;2023-05-20T00:39:00;16.23;;;10.90;;
7831;SDS011;3961;42.058;25.586;2023-05-20T00:41:25;17.73;;;11.53;;
7831;SDS011;3961;42.058;25.586;2023-05-20T00:43:54;17.67;;;11.37;;
7831;SDS011;3961;42.058;25.586;2023-05-20T00:46:20;16.03;;;11.43;;
7831;SDS011;3961;42.058;25.586;2023-05-20T00:48:47;18.87;;;11.97;;
7831;SDS011;3961;42.058;25.586;2023-05-20T00:51:14;16.80;;;11.87;;
7831;SDS011;3961;42.058;25.586;2023-05-20T00:53:39;15.20;;;10.90;;
7831;SDS011;3961;42.058;25.586;2023-05-20T00:56:06;17.63;;;10.80;;
7831;SDS011;3961;42.058;25.586;2023-05-20T00:58:33;13.87;;;11.43;;
7831;SDS011;3961;42.058;25.586;2023-05-20T01:01:01;15.67;;;11.83;;
7831;SDS011;3961;42.058;25.586;2023-05-20T01:03:27;19.47;;;10.83;;
7831;SDS011;3961;42.058;25.586;2023-05-20T01:05:53;18.17;;;11.33;;
7831;SDS011;3961;42.058;25.586;2023-05-20T01:08:19;14.47;;;11.73;;
7831;SDS011;3961;42.058;25.586;2023-05-20T01:10:48;18.93;;;10.47;;
7831;SDS011;3961;42.058;25.586;2023-05-20T01:13:19;16.27;;;11.40;;
7831;SDS011;3961;42.058;25.586;2023-05-20T01:15:48;16.53;;;10.93;;
7831;SDS011;3961;42.058;25.586;2023-05-20T01:18:14;16.80;;;11.07;;
7831;SDS011;3961;42.058;25.586;2023-05-20T01:20:48;17.40;;;11.37;;
7831;SDS011;3961;42.058;25.586;2023-05-20T01:23:15;19.17;;;11.73;;
7831;SDS011;3961;42.058;25.586;2023-05-20T01:25:41;16.83;;;11.33;;
7831;SDS011;3961;42.058;25.586;2023-05-20T01:28:06;23.67;;;11.97;;
7831;SDS011;3961;42.058;25.586;2023-05-20T01:30:37;16.97;;;11.50;;
7831;SDS011;3961;42.058;25.586;2023-05-20T01:33:09;19.50;;;11.03;;
7831;SDS011;3961;42.058;25.586;2023-05-20T01:35:36;18.17;;;11.60;;
7831;SDS011;3961;42.058;25.586;2023-05-20T01:38:04;15.40;;;11.20;;
7831;SDS011;3961;42.058;25.586;2023-05-20T01:40:31;16.57;;;11.20;;
7831;SDS011;3961;42.058;25.586;2023-05-20T01:42:57;15.77;;;11.13;;
7831;SDS011;3961;42.058;25.586;2023-05-20T01:45:24;17.70;;;12.13;;
7831;SDS011;3961;42.058;25.586;2023-05-20T01:47:50;19.83;;;12.10;;
7831;SDS011;3961;42.058;25.586;2023-05-20T01:50:15;20.70;;;11.80;;
7831;SDS011;3961;42.058;25.586;2023-05-20T01:52:41;19.63;;;11.90;;
7831;SDS011;3961;42.058;25.586;2023-05-20T01:55:06;18.37;;;12.03;;
7831;SDS011;3961;42.058;25.586;2023-05-20T01:57:32;16.23;;;12.47;;
7831;SDS011;3961;42.058;25.586;2023-05-20T01:59:58;19.77;;;11.80;;
7831;SDS011;3961;42.058;25.586;2023-05-20T02:02:23;14.17;;;11.37;;
7831;SDS011;3961;42.058;25.586;2023-05-20T02:04:49;22.60;;;12.33;;
7831;SDS011;3961;42.058;25.586;2023-05-20T02:07:16;20.10;;;11.87;;
7831;SDS011;3961;42.058;25.586;2023-05-20T02:09:45;16.30;;;12.20;;
7831;SDS011;3961;42.058;25.586;2023-05-20T02:12:11;16.63;;;11.70;;
7831;SDS011;3961;42.058;25.586;2023-05-20T02:14:41;16.43;;;11.50;;
7831;SDS011;3961;42.058;25.586;2023-05-20T02:17:15;14.10;;;11.30;;
7831;SDS011;3961;42.058;25.586;2023-05-20T02:19:42;13.27;;;10.83;;
7831;SDS011;3961;42.058;25.586;2023-05-20T02:22:08;16.20;;;10.87;;
7831;SDS011;3961;42.058;25.586;2023-05-20T02:24:34;15.40;;;11.70;;
7831;SDS011;3961;42.058;25.586;2023-05-20T02:26:59;14.70;;;11.70;;
7831;SDS011;3961;42.058;25.586;2023-05-20T02:29:25;16.50;;;11.63;;
7831;SDS011;3961;42.058;25.586;2023-05-20T02:31:51;16.97;;;11.77;;
7831;SDS011;3961;42.058;25.586;2023-05-20T02:34:17;13.73;;;11.10;;
7831;SDS011;3961;42.058;25.586;2023-05-20T02:36:43;16.43;;;11.70;;
7831;SDS011;3961;42.058;25.586;2023-05-20T02:39:08;18.00;;;12.47;;
7831;SDS011;3961;42.058;25.586;2023-05-20T02:41:34;17.47;;;12.20;;
7831;SDS011;3961;42.058;25.586;2023-05-20T02:43:59;17.97;;;11.83;;
7831;SDS011;3961;42.058;25.586;2023-05-20T02:46:25;16.23;;;13.27;;
7831;SDS011;3961;42.058;25.586;2023-05-20T02:48:50;19.50;;;13.20;;
7831;SDS011;3961;42.058;25.586;2023-05-20T02:51:16;17.67;;;13.30;;
7831;SDS011;3961;42.058;25.586;2023-05-20T02:53:41;18.03;;;12.50;;
7831;SDS011;3961;42.058;25.586;2023-05-20T02:56:06;19.53;;;13.63;;
7831;SDS011;3961;42.058;25.586;2023-05-20T02:58:33;22.43;;;13.40;;
7831;SDS011;3961;42.058;25.586;2023-05-20T03:01:00;19.10;;;13.47;;
7831;SDS011;3961;42.058;25.586;2023-05-20T03:03:26;20.63;;;14.33;;
7831;SDS011;3961;42.058;25.586;2023-05-20T03:05:52;19.37;;;13.20;;
7831;SDS011;3961;42.058;25.586;2023-05-20T03:08:19;18.33;;;12.90;;
7831;SDS011;3961;42.058;25.586;2023-05-20T03:10:46;20.47;;;13.67;;
7831;SDS011;3961;42.058;25.586;2023-05-20T03:13:11;18.10;;;13.37;;
7831;SDS011;3961;42.058;25.586;2023-05-20T03:15:39;22.10;;;13.77;;
7831;SDS011;3961;42.058;25.586;2023-05-20T03:18:06;18.83;;;12.80;;
7831;SDS011;3961;42.058;25.586;2023-05-20T03:20:33;18.50;;;12.83;;
7831;SDS011;3961;42.058;25.586;2023-05-20T03:23:01;19.13;;;13.17;;
7831;SDS011;3961;42.058;25.586;2023-05-20T03:25:27;18.07;;;12.83;;
7831;SDS011;3961;42.058;25.586;2023-05-20T03:27:53;19.30;;;12.43;;
7831;SDS011;3961;42.058;25.586;2023-05-20T03:30:18;14.83;;;12.43;;
7831;SDS011;3961;42.058;25.586;2023-05-20T03:32:44;15.33;;;11.33;;
7831;SDS011;3961;42.058;25.586;2023-05-20T03:35:09;19.20;;;11.67;;
7831;SDS011;3961;42.058;25.586;2023-05-20T03:37:35;20.80;;;12.07;;
7831;SDS011;3961;42.058;25.586;2023-05-20T03:40:01;20.90;;;12.33;;
7831;SDS011;3961;42.058;25.586;2023-05-20T03:42:30;19.63;;;11.80;;
7831;SDS011;3961;42.058;25.586;2023-05-20T03:44:59;18.90;;;12.40;;
7831;SDS011;3961;42.058;25.586;2023-05-20T03:47:25;14.43;;;11.60;;
7831;SDS011;3961;42.058;25.586;2023-05-20T03:49:51;16.83;;;11.80;;
7831;SDS011;3961;42.058;25.586;2023-05-20T03:52:16;14.37;;;11.13;;
7831;SDS011;3961;42.058;25.586;2023-05-20T03:54:42;13.60;;;11.20;;
7831;SDS011;3961;42.058;25.586;2023-05-20T03:57:07;16.77;;;10.80;;
7831;SDS011;3961;42.058;25.586;2023-05-20T03:59:34;16.37;;;11.70;;
7831;SDS011;3961;42.058;25.586;2023-05-20T04:02:00;19.10;;;11.77;;
7831;SDS011;3961;42.058;25.586;2023-05-20T04:04:26;15.30;;;11.87;;
7831;SDS011;3961;42.058;25.586;2023-05-20T04:06:52;15.33;;;11.73;;
7831;SDS011;3961;42.058;25.586;2023-05-20T04:09:18;15.50;;;12.30;;
7831;SDS011;3961;42.058;25.586;2023-05-20T04:11:44;18.67;;;12.60;;
7831;SDS011;3961;42.058;25.586;2023-05-20T04:14:09;17.47;;;12.50;;
7831;SDS011;3961;42.058;25.586;2023-05-20T04:16:35;15.73;;;11.87;;
7831;SDS011;3961;42.058;25.586;2023-05-20T04:19:02;20.43;;;12.03;;
7831;SDS011;3961;42.058;25.586;2023-05-20T04:21:27;23.70;;;12.57;;
7831;SDS011;3961;42.058;25.586;2023-05-20T04:23:53;19.30;;;12.90;;
7831;SDS011;3961;42.058;25.586;2023-05-20T04:26:19;17.60;;;11.77;;
7831;SDS011;3961;42.058;25.586;2023-05-20T04:28:45;22.57;;;14.57;;
7831;SDS011;3961;42.058;25.586;2023-05-20T04:31:13;17.07;;;11.60;;
7831;SDS011;3961;42.058;25.586;2023-05-20T04:33:39;15.83;;;11.30;;
7831;SDS011;3961;42.058;25.586;2023-05-20T04:36:11;14.53;;;10.40;;
7831;SDS011;3961;42.058;25.586;2023-05-20T04:38:39;14.47;;;9.47;;
7831;SDS011;3961;42.058;25.586;2023-05-20T04:41:06;14.10;;;9.30;;
7831;SDS011;3961;42.058;25.586;2023-05-20T04:43:32;17.73;;;10.53;;
7831;SDS011;3961;42.058;25.586;2023-05-20T04:45:58;14.30;;;9.37;;
7831;SDS011;3961;42.058;25.586;2023-05-20T04:48:25;19.10;;;11.17;;
7831;SDS011;3961;42.058;25.586;2023-05-20T04:50:51;15.70;;;10.00;;
7831;SDS011;3961;42.058;25.586;2023-05-20T04:53:18;13.53;;;9.93;;
7831;SDS011;3961;42.058;25.586;2023-05-20T04:55:47;16.83;;;10.07;;
7831;SDS011;3961;42.058;25.586;2023-05-20T04:58:14;15.47;;;9.17;;
7831;SDS011;3961;42.058;25.586;2023-05-20T05:00:41;15.03;;;9.30;;
7831;SDS011;3961;42.058;25.586;2023-05-20T05:03:07;14.43;;;8.23;;
7831;SDS011;3961;42.058;25.586;2023-05-20T05:05:33;15.60;;;8.57;;
7831;SDS011;3961;42.058;25.586;2023-05-20T05:08:01;12.50;;;8.50;;
7831;SDS011;3961;42.058;25.586;2023-05-20T05:10:27;12.60;;;7.57;;
7831;SDS011;3961;42.058;25.586;2023-05-20T05:12:52;14.87;;;8.20;;
7831;SDS011;3961;42.058;25.586;2023-05-20T05:15:18;12.07;;;7.87;;
7831;SDS011;3961;42.058;25.586;2023-05-20T05:17:43;10.97;;;7.57;;
7831;SDS011;3961;42.058;25.586;2023-05-20T05:20:09;13.37;;;8.40;;
7831;SDS011;3961;42.058;25.586;2023-05-20T05:22:35;9.80;;;7.70;;
7831;SDS011;3961;42.058;25.586;2023-05-20T05:25:02;13.60;;;8.17;;
7831;SDS011;3961;42.058;25.586;2023-05-20T05:27:27;14.13;;;8.23;;
7831;SDS011;3961;42.058;25.586;2023-05-20T05:29:53;11.97;;;8.50;;
7831;SDS011;3961;42.058;25.586;2023-05-20T05:32:18;11.67;;;6.93;;
7831;SDS011;3961;42.058;25.586;2023-05-20T05:34:44;10.73;;;7.63;;
7831;SDS011;3961;42.058;25.586;2023-05-20T05:37:09;10.30;;;7.57;;
7831;SDS011;3961;42.058;25.586;2023-05-20T05:39:35;14.80;;;9.03;;
7831;SDS011;3961;42.058;25.586;2023-05-20T05:42:02;15.70;;;8.63;;
7831;SDS011;3961;42.058;25.586;2023-05-20T05:44:28;14.10;;;7.93;;
7831;SDS011;3961;42.058;25.586;2023-05-20T05:46:53;11.97;;;8.07;;
7831;SDS011;3961;42.058;25.586;2023-05-20T05:49:19;10.60;;;8.27;;
7831;SDS011;3961;42.058;25.586;2023-05-20T05:51:44;12.60;;;8.17;;
7831;SDS011;3961;42.058;25.586;2023-05-20T05:54:10;11.30;;;8.10;;
7831;SDS011;3961;42.058;25.586;2023-05-20T05:56:35;14.07;;;8.50;;
7831;SDS011;3961;42.058;25.586;2023-05-20T05:59:00;11.83;;;7.83;;
7831;SDS011;3961;42.058;25.586;2023-05-20T06:01:26;12.17;;;8.50;;
7831;SDS011;3961;42.058;25.586;2023-05-20T06:03:52;13.50;;;8.67;;
7831;SDS011;3961;42.058;25.586;2023-05-20T06:06:17;20.57;;;8.97;;
7831;SDS011;3961;42.058;25.586;2023-05-20T06:08:43;18.80;;;9.20;;
7831;SDS011;3961;42.058;25.586;2023-05-20T06:11:08;12.73;;;8.30;;
7831;SDS011;3961;42.058;25.586;2023-05-20T06:13:34;11.50;;;7.53;;
7831;SDS011;3961;42.058;25.586;2023-05-20T06:16:00;14.70;;;7.30;;
7831;SDS011;3961;42.058;25.586;2023-05-20T06:18:25;9.47;;;7.53;;
7831;SDS011;3961;42.058;25.586;2023-05-20T06:20:55;11.00;;;7.60;;
7831;SDS011;3961;42.058;25.586;2023-05-20T06:23:21;14.50;;;8.00;;
7831;SDS011;3961;42.058;25.586;2023-05-20T06:25:46;13.07;;;8.30;;
7831;SDS011;3961;42.058;25.586;2023-05-20T06:28:12;11.70;;;7.57;;
7831;SDS011;3961;42.058;25.586;2023-05-20T06:30:39;13.17;;;7.90;;
7831;SDS011;3961;42.058;25.586;2023-05-20T06:33:05;18.30;;;8.63;;
7831;SDS011;3961;42.058;25.586;2023-05-20T06:35:30;20.97;;;10.80;;
7831;SDS011;3961;42.058;25.586;2023-05-20T06:37:58;13.70;;;9.60;;
7831;SDS011;3961;42.058;25.586;2023-05-20T06:40:25;11.13;;;8.57;;
7831;SDS011;3961;42.058;25.586;2023-05-20T06:42:52;16.67;;;8.43;;
7831;SDS011;3961;42.058;25.586;2023-05-20T06:45:17;9.87;;;8.20;;
7831;SDS011;3961;42.058;25.586;2023-05-20T06:47:43;9.47;;;7.40;;
7831;SDS011;3961;42.058;25.586;2023-05-20T06:50:09;12.93;;;7.30;;
7831;SDS011;3961;42.058;25.586;2023-05-20T06:52:35;17.77;;;7.23;;
7831;SDS011;3961;42.058;25.586;2023-05-20T06:55:01;13.77;;;7.90;;
7831;SDS011;3961;42.058;25.586;2023-05-20T06:57:28;10.90;;;6.93;;
7831;SDS011;3961;42.058;25.586;2023-05-20T06:59:53;11.83;;;7.27;;
7831;SDS011;3961;42.058;25.586;2023-05-20T07:02:20;9.33;;;6.37;;
7831;SDS011;3961;42.058;25.586;2023-05-20T07:04:46;9.07;;;6.27;;
7831;SDS011;3961;42.058;25.586;2023-05-20T07:07:12;12.30;;;6.63;;
7831;SDS011;3961;42.058;25.586;2023-05-20T07:09:37;11.63;;;6.20;;
7831;SDS011;3961;42.058;25.586;2023-05-20T07:12:03;8.40;;;5.20;;
7831;SDS011;3961;42.058;25.586;2023-05-20T07:14:28;7.20;;;5.70;;
7831;SDS011;3961;42.058;25.586;2023-05-20T07:16:54;8.50;;;5.10;;
7831;SDS011;3961;42.058;25.586;2023-05-20T07:19:20;6.23;;;5.20;;
7831;SDS011;3961;42.058;25.586;2023-05-20T07:21:45;8.87;;;5.60;;
7831;SDS011;3961;42.058;25.586;2023-05-20T07:24:11;7.73;;;4.97;;
7831;SDS011;3961;42.058;25.586;2023-05-20T07:26:36;11.73;;;5.87;;
7831;SDS011;3961;42.058;25.586;2023-05-20T07:29:02;9.20;;;5.13;;
7831;SDS011;3961;42.058;25.586;2023-05-20T07:31:28;6.47;;;5.23;;
7831;SDS011;3961;42.058;25.586;2023-05-20T07:33:54;10.93;;;5.40;;
7831;SDS011;3961;42.058;25.586;2023-05-20T07:36:20;7.60;;;6.10;;
7831;SDS011;3961;42.058;25.586;2023-05-20T07:38:45;8.53;;;5.20;;
7831;SDS011;3961;42.058;25.586;2023-05-20T07:41:11;8.53;;;6.23;;
7831;SDS011;3961;42.058;25.586;2023-05-20T07:43:36;8.10;;;5.30;;
7831;SDS011;3961;42.058;25.586;2023-05-20T07:46:02;12.07;;;5.73;;
7831;SDS011;3961;42.058;25.586;2023-05-20T07:48:28;7.63;;;5.27;;
7831;SDS011;3961;42.058;25.586;2023-05-20T07:50:53;9.47;;;6.13;;
7831;SDS011;3961;42.058;25.586;2023-05-20T07:53:23;8.53;;;5.97;;
7831;SDS011;3961;42.058;25.586;2023-05-20T07:55:48;8.27;;;5.90;;
7831;SDS011;3961;42.058;25.586;2023-05-20T07:58:15;8.00;;;6.03;;
7831;SDS011;3961;42.058;25.586;2023-05-20T08:00:41;10.93;;;5.50;;
7831;SDS011;3961;42.058;25.586;2023-05-20T08:03:08;8.00;;;6.20;;
7831;SDS011;3961;42.058;25.586;2023-05-20T08:05:37;9.43;;;5.90;;
7831;SDS011;3961;42.058;25.586;2023-05-20T08:08:03;6.77;;;5.90;;
7831;SDS011;3961;42.058;25.586;2023-05-20T08:10:29;8.27;;;5.90;;
7831;SDS011;3961;42.058;25.586;2023-05-20T08:12:55;11.50;;;5.60;;
7831;SDS011;3961;42.058;25.586;2023-05-20T08:15:21;9.30;;;6.17;;
7831;SDS011;3961;42.058;25.586;2023-05-20T08:17:46;10.20;;;6.77;;
7831;SDS011;3961;42.058;25.586;2023-05-20T08:20:12;10.07;;;6.90;;
7831;SDS011;3961;42.058;25.586;2023-05-20T08:22:38;8.87;;;5.93;;
7831;SDS011;3961;42.058;25.586;2023-05-20T08:25:06;13.63;;;6.40;;
7831;SDS011;3961;42.058;25.586;2023-05-20T08:27:33;15.57;;;6.10;;
7831;SDS011;3961;42.058;25.586;2023-05-20T08:29:59;9.27;;;6.00;;
7831;SDS011;3961;42.058;25.586;2023-05-20T08:32:25;13.00;;;6.13;;
7831;SDS011;3961;42.058;25.586;2023-05-20T08:34:50;9.43;;;5.90;;
7831;SDS011;3961;42.058;25.586;2023-05-20T08:37:16;8.77;;;5.67;;
7831;SDS011;3961;42.058;25.586;2023-05-20T08:39:42;8.60;;;6.17;;
7831;SDS011;3961;42.058;25.586;2023-05-20T08:42:10;8.33;;;6.30;;
7831;SDS011;3961;42.058;25.586;2023-05-20T08:44:37;7.50;;;5.93;;
7831;SDS011;3961;42.058;25.586;2023-05-20T08:47:06;9.13;;;5.97;;
7831;SDS011;3961;42.058;25.586;2023-05-20T08:49:32;10.07;;;6.27;;
7831;SDS011;3961;42.058;25.586;2023-05-20T08:51:59;9.40;;;6.67;;
7831;SDS011;3961;42.058;25.586;2023-05-20T08:54:25;11.97;;;5.90;;
7831;SDS011;3961;42.058;25.586;2023-05-20T08:57:02;9.33;;;6.17;;
7831;SDS011;3961;42.058;25.586;2023-05-20T08:59:28;12.33;;;5.93;;
7831;SDS011;3961;42.058;25.586;2023-05-20T09:01:54;9.87;;;5.67;;
7831;SDS011;3961;42.058;25.586;2023-05-20T09:04:20;11.13;;;6.60;;
7831;SDS011;3961;42.058;25.586;2023-05-20T09:06:45;10.57;;;5.87;;
7831;SDS011;3961;42.058;25.586;2023-05-20T09:09:12;14.50;;;6.40;;
7831;SDS011;3961;42.058;25.586;2023-05-20T09:11:39;11.43;;;6.63;;
7831;SDS011;3961;42.058;25.586;2023-05-20T09:14:05;10.43;;;6.77;;
7831;SDS011;3961;42.058;25.586;2023-05-20T09:16:31;9.10;;;6.20;;
7831;SDS011;3961;42.058;25.586;2023-05-20T09:18:57;11.03;;;6.40;;
7831;SDS011;3961;42.058;25.586;2023-05-20T09:21:26;12.20;;;6.40;;
7831;SDS011;3961;42.058;25.586;2023-05-20T09:23:52;10.17;;;6.37;;
7831;SDS011;3961;42.058;25.586;2023-05-20T09:26:18;7.70;;;5.67;;
7831;SDS011;3961;42.058;25.586;2023-05-20T09:28:44;8.30;;;5.80;;
7831;SDS011;3961;42.058;25.586;2023-05-20T09:31:12;8.27;;;6.00;;
7831;SDS011;3961;42.058;25.586;2023-05-20T09:33:38;9.20;;;6.00;;
7831;SDS011;3961;42.058;25.586;2023-05-20T09:36:08;6.73;;;5.40;;
7831;SDS011;3961;42.058;25.586;2023-05-20T09:38:38;9.93;;;5.47;;
7831;SDS011;3961;42.058;25.586;2023-05-20T09:41:05;8.27;;;5.80;;
7831;SDS011;3961;42.058;25.586;2023-05-20T09:43:33;7.13;;;5.63;;
7831;SDS011;3961;42.058;25.586;2023-05-20T09:46:00;10.07;;;5.23;;
7831;SDS011;3961;42.058;25.586;2023-05-20T09:48:27;7.37;;;5.80;;
7831;SDS011;3961;42.058;25.586;2023-05-20T09:50:55;8.47;;;5.03;;
7831;SDS011;3961;42.058;25.586;2023-05-20T09:53:22;9.10;;;5.43;;
7831;SDS011;3961;42.058;25.586;2023-05-20T09:55:52;9.43;;;5.60;;
7831;SDS011;3961;42.058;25.586;2023-05-20T09:58:18;7.40;;;5.13;;
7831;SDS011;3961;42.058;25.586;2023-05-20T10:00:44;7.80;;;5.33;;
7831;SDS011;3961;42.058;25.586;2023-05-20T10:03:10;8.57;;;5.40;;
7831;SDS011;3961;42.058;25.586;2023-05-20T10:05:37;11.13;;;5.20;;
7831;SDS011;3961;42.058;25.586;2023-05-20T10:21:56;6.70;;;5.07;;
7831;SDS011;3961;42.058;25.586;2023-05-20T10:24:43;7.43;;;5.40;;
7831;SDS011;3961;42.058;25.586;2023-05-20T10:27:12;6.23;;;5.20;;
7831;SDS011;3961;42.058;25.586;2023-05-20T10:29:49;7.73;;;5.30;;
7831;SDS011;3961;42.058;25.586;2023-05-20T10:32:25;7.77;;;5.17;;
7831;SDS011;3961;42.058;25.586;2023-05-20T10:34:56;10.63;;;5.17;;
7831;SDS011;3961;42.058;25.586;2023-05-20T10:37:27;6.77;;;4.83;;
7831;SDS011;3961;42.058;25.586;2023-05-20T10:40:04;8.47;;;5.50;;
7831;SDS011;3961;42.058;25.586;2023-05-20T10:42:35;7.23;;;5.33;;
7831;SDS011;3961;42.058;25.586;2023-05-20T10:45:01;7.43;;;5.20;;
7831;SDS011;3961;42.058;25.586;2023-05-20T10:47:28;7.47;;;5.37;;
7831;SDS011;3961;42.058;25.586;2023-05-20T10:49:53;7.63;;;4.70;;
7831;SDS011;3961;42.058;25.586;2023-05-20T10:52:19;6.60;;;5.03;;
7831;SDS011;3961;42.058;25.586;2023-05-20T10:54:46;5.63;;;4.00;;
7831;SDS011;3961;42.058;25.586;2023-05-20T10:57:17;7.87;;;5.10;;
7831;SDS011;3961;42.058;25.586;2023-05-20T10:59:43;6.03;;;4.73;;
7831;SDS011;3961;42.058;25.586;2023-05-20T11:02:09;8.10;;;5.43;;
7831;SDS011;3961;42.058;25.586;2023-05-20T11:04:36;6.23;;;4.33;;
7831;SDS011;3961;42.058;25.586;2023-05-20T11:07:03;6.37;;;4.73;;
7831;SDS011;3961;42.058;25.586;2023-05-20T11:09:28;8.80;;;4.63;;
7831;SDS011;3961;42.058;25.586;2023-05-20T11:11:55;6.33;;;4.60;;
7831;SDS011;3961;42.058;25.586;2023-05-20T11:14:21;7.47;;;5.30;;
7831;SDS011;3961;42.058;25.586;2023-05-20T11:16:50;10.80;;;4.77;;
7831;SDS011;3961;42.058;25.586;2023-05-20T11:19:17;10.00;;;5.10;;
7831;SDS011;3961;42.058;25.586;2023-05-20T11:21:43;7.67;;;4.77;;
7831;SDS011;3961;42.058;25.586;2023-05-20T11:24:10;7.13;;;5.03;;
7831;SDS011;3961;42.058;25.586;2023-05-20T11:26:36;10.23;;;4.57;;
7831;SDS011;3961;42.058;25.586;2023-05-20T11:29:02;10.60;;;4.80;;
7831;SDS011;3961;42.058;25.586;2023-05-20T11:31:29;8.30;;;5.20;;
7831;SDS011;3961;42.058;25.586;2023-05-20T11:33:57;7.20;;;4.77;;
7831;SDS011;3961;42.058;25.586;2023-05-20T11:36:25;10.17;;;4.93;;
7831;SDS011;3961;42.058;25.586;2023-05-20T11:38:53;7.80;;;4.83;;
7831;SDS011;3961;42.058;25.586;2023-05-20T11:41:22;8.17;;;4.70;;
7831;SDS011;3961;42.058;25.586;2023-05-20T11:43:54;7.70;;;4.80;;
7831;SDS011;3961;42.058;25.586;2023-05-20T11:46:23;10.53;;;4.87;;
7831;SDS011;3961;42.058;25.586;2023-05-20T11:48:55;9.50;;;4.90;;
7831;SDS011;3961;42.058;25.586;2023-05-20T11:51:30;6.20;;;4.83;;
7831;SDS011;3961;42.058;25.586;2023-05-20T11:53:59;8.10;;;5.10;;
7831;SDS011;3961;42.058;25.586;2023-05-20T11:56:29;6.77;;;4.83;;
7831;SDS011;3961;42.058;25.586;2023-05-20T11:58:59;9.13;;;5.27;;
7831;SDS011;3961;42.058;25.586;2023-05-20T12:01:25;12.83;;;5.50;;
7831;SDS011;3961;42.058;25.586;2023-05-20T12:03:53;6.93;;;4.87;;
7831;SDS011;3961;42.058;25.586;2023-05-20T12:06:19;12.60;;;4.47;;
7831;SDS011;3961;42.058;25.586;2023-05-20T12:08:44;10.60;;;5.03;;
7831;SDS011;3961;42.058;25.586;2023-05-20T12:11:11;9.17;;;4.63;;
7831;SDS011;3961;42.058;25.586;2023-05-20T12:13:37;8.40;;;4.67;;
7831;SDS011;3961;42.058;25.586;2023-05-20T12:16:03;15.60;;;4.57;;
7831;SDS011;3961;42.058;25.586;2023-05-20T12:18:32;8.50;;;4.60;;
7831;SDS011;3961;42.058;25.586;2023-05-20T12:20:58;10.30;;;4.57;;
7831;SDS011;3961;42.058;25.586;2023-05-20T12:23:24;6.30;;;4.60;;
7831;SDS011;3961;42.058;25.586;2023-05-20T12:25:50;11.50;;;4.83;;
7831;SDS011;3961;42.058;25.586;2023-05-20T12:28:16;10.97;;;4.63;;
7831;SDS011;3961;42.058;25.586;2023-05-20T12:30:41;7.40;;;4.33;;
7831;SDS011;3961;42.058;25.586;2023-05-20T12:33:08;9.67;;;4.67;;
7831;SDS011;3961;42.058;25.586;2023-05-20T12:35:37;8.33;;;4.50;;
7831;SDS011;3961;42.058;25.586;2023-05-20T12:38:04;12.53;;;4.87;;
7831;SDS011;3961;42.058;25.586;2023-05-20T12:40:31;7.73;;;4.57;;
7831;SDS011;3961;42.058;25.586;2023-05-20T12:42:59;10.27;;;5.23;;
7831;SDS011;3961;42.058;25.586;2023-05-20T12:45:25;7.03;;;4.73;;
7831;SDS011;3961;42.058;25.586;2023-05-20T12:47:50;9.60;;;4.60;;
7831;SDS011;3961;42.058;25.586;2023-05-20T12:50:16;6.80;;;4.50;;
7831;SDS011;3961;42.058;25.586;2023-05-20T12:52:41;5.67;;;4.60;;
7831;SDS011;3961;42.058;25.586;2023-05-20T12:55:07;8.90;;;5.20;;
7831;SDS011;3961;42.058;25.586;2023-05-20T12:57:40;9.70;;;4.93;;
7831;SDS011;3961;42.058;25.586;2023-05-20T13:00:07;9.07;;;4.93;;
7831;SDS011;3961;42.058;25.586;2023-05-20T13:02:34;5.23;;;4.57;;
7831;SDS011;3961;42.058;25.586;2023-05-20T13:05:00;9.77;;;4.50;;
7831;SDS011;3961;42.058;25.586;2023-05-20T13:07:26;6.93;;;4.07;;
7831;SDS011;3961;42.058;25.586;2023-05-20T13:09:51;15.83;;;4.63;;
7831;SDS011;3961;42.058;25.586;2023-05-20T13:12:17;8.53;;;4.80;;
7831;SDS011;3961;42.058;25.586;2023-05-20T13:14:43;7.53;;;4.50;;
7831;SDS011;3961;42.058;25.586;2023-05-20T13:17:08;5.63;;;4.20;;
7831;SDS011;3961;42.058;25.586;2023-05-20T13:19:35;9.27;;;4.50;;
7831;SDS011;3961;42.058;25.586;2023-05-20T13:22:01;8.77;;;4.67;;
7831;SDS011;3961;42.058;25.586;2023-05-20T13:24:28;7.90;;;4.60;;
7831;SDS011;3961;42.058;25.586;2023-05-20T13:26:53;7.10;;;5.10;;
7831;SDS011;3961;42.058;25.586;2023-05-20T13:29:18;9.77;;;4.90;;
7831;SDS011;3961;42.058;25.586;2023-05-20T13:31:45;7.10;;;4.60;;
7831;SDS011;3961;42.058;25.586;2023-05-20T13:34:11;10.30;;;4.53;;
7831;SDS011;3961;42.058;25.586;2023-05-20T13:36:36;6.73;;;4.37;;
7831;SDS011;3961;42.058;25.586;2023-05-20T13:39:02;6.60;;;4.27;;
7831;SDS011;3961;42.058;25.586;2023-05-20T13:41:27;7.73;;;4.63;;
7831;SDS011;3961;42.058;25.586;2023-05-20T13:43:54;6.87;;;4.37;;
7831;SDS011;3961;42.058;25.586;2023-05-20T13:46:19;7.60;;;4.80;;
7831;SDS011;3961;42.058;25.586;2023-05-20T13:48:45;7.00;;;4.90;;
7831;SDS011;3961;42.058;25.586;2023-05-20T13:51:10;6.93;;;4.67;;
7831;SDS011;3961;42.058;25.586;2023-05-20T13:53:36;7.47;;;4.50;;
7831;SDS011;3961;42.058;25.586;2023-05-20T13:56:01;8.97;;;4.33;;
7831;SDS011;3961;42.058;25.586;2023-05-20T13:58:27;5.77;;;4.07;;
7831;SDS011;3961;42.058;25.586;2023-05-20T14:00:53;5.70;;;4.30;;
7831;SDS011;3961;42.058;25.586;2023-05-20T14:03:18;5.97;;;4.77;;
7831;SDS011;3961;42.058;25.586;2023-05-20T14:05:44;6.17;;;4.43;;
7831;SDS011;3961;42.058;25.586;2023-05-20T14:08:10;12.03;;;4.60;;
7831;SDS011;3961;42.058;25.586;2023-05-20T14:10:36;7.37;;;4.17;;
7831;SDS011;3961;42.058;25.586;2023-05-20T14:13:02;6.77;;;4.83;;
7831;SDS011;3961;42.058;25.586;2023-05-20T14:15:27;6.30;;;4.87;;
7831;SDS011;3961;42.058;25.586;2023-05-20T14:17:56;11.63;;;5.20;;
7831;SDS011;3961;42.058;25.586;2023-05-20T14:20:25;15.50;;;5.30;;
7831;SDS011;3961;42.058;25.586;2023-05-20T14:22:51;6.77;;;4.53;;
7831;SDS011;3961;42.058;25.586;2023-05-20T14:25:17;6.10;;;4.40;;
7831;SDS011;3961;42.058;25.586;2023-05-20T14:27:43;9.23;;;4.63;;
7831;SDS011;3961;42.058;25.586;2023-05-20T14:30:08;10.13;;;4.70;;
7831;SDS011;3961;42.058;25.586;2023-05-20T14:32:34;6.17;;;4.90;;
7831;SDS011;3961;42.058;25.586;2023-05-20T14:35:00;7.00;;;4.57;;
7831;SDS011;3961;42.058;25.586;2023-05-20T14:37:25;6.73;;;4.60;;
7831;SDS011;3961;42.058;25.586;2023-05-20T14:39:55;7.90;;;5.30;;
7831;SDS011;3961;42.058;25.586;2023-05-20T14:42:20;9.10;;;5.07;;
7831;SDS011;3961;42.058;25.586;2023-05-20T14:44:46;10.00;;;4.90;;
7831;SDS011;3961;42.058;25.586;2023-05-20T14:47:11;6.97;;;4.90;;
7831;SDS011;3961;42.058;25.586;2023-05-20T14:49:40;6.93;;;4.77;;
7831;SDS011;3961;42.058;25.586;2023-05-20T14:52:07;6.97;;;5.07;;
7831;SDS011;3961;42.058;25.586;2023-05-20T14:54:32;7.70;;;4.97;;
7831;SDS011;3961;42.058;25.586;2023-05-20T14:56:58;6.97;;;4.60;;